sensor_id;sensor_type;location;lat;lon;timestamp;pressure;altitude;pressure_sealevel;temperature;humidity
33404;BME280;19751;40.274;18.268;2023-02-13T00:02:07;102559.25;;;10.05;61.99
33404;BME280;19751;40.274;18.268;2023-02-13T00:04:32;102561.22;;;10.03;61.92
33404;BME280;19751;40.274;18.268;2023-02-13T00:06:59;102563.06;;;10.02;61.73
33404;BME280;19751;40.274;18.268;2023-02-13T00:09:24;102561.22;;;10.03;61.25
33404;BME280;19751;40.274;18.268;2023-02-13T00:11:50;102576.53;;;10.02;61.29
33404;BME280;19751;40.274;18.268;2023-02-13T00:14:15;102567.88;;;9.99;61.17
33404;BME280;19751;40.274;18.268;2023-02-13T00:16:41;102570.72;;;9.97;61.14
33404;BME280;19751;40.274;18.268;2023-02-13T00:19:06;102572.56;;;9.96;60.83
33404;BME280;19751;40.274;18.268;2023-02-13T00:21:31;102573.69;;;9.94;60.94
33404;BME280;19751;40.274;18.268;2023-02-13T00:23:57;102567.72;;;9.90;60.97
33404;BME280;19751;40.274;18.268;2023-02-13T00:26:22;102573.13;;;9.90;61.22
33404;BME280;19751;40.274;18.268;2023-02-13T00:28:48;102580.34;;;9.90;61.45
33404;BME280;19751;40.274;18.268;2023-02-13T00:31:16;102578.66;;;9.89;61.54
33404;BME280;19751;40.274;18.268;2023-02-13T00:33:42;102580.50;;;9.88;62.02
33404;BME280;19751;40.274;18.268;2023-02-13T00:36:12;102582.59;;;9.85;62.09
33404;BME280;19751;40.274;18.268;2023-02-13T00:38:39;102580.06;;;9.83;61.86
33404;BME280;19751;40.274;18.268;2023-02-13T00:41:05;102579.34;;;9.81;61.82
33404;BME280;19751;40.274;18.268;2023-02-13T00:43:31;102591.25;;;9.79;61.82
33404;BME280;19751;40.274;18.268;2023-02-13T00:45:57;102587.69;;;9.78;61.53
33404;BME280;19751;40.274;18.268;2023-02-13T00:48:27;102594.06;;;9.77;61.60
33404;BME280;19751;40.274;18.268;2023-02-13T00:50:53;102588.00;;;9.75;61.38
33404;BME280;19751;40.274;18.268;2023-02-13T00:53:21;102584.56;;;9.73;61.44
33404;BME280;19751;40.274;18.268;2023-02-13T00:55:47;102588.25;;;9.72;61.39
33404;BME280;19751;40.274;18.268;2023-02-13T00:58:13;102592.91;;;9.70;61.67
33404;BME280;19751;40.274;18.268;2023-02-13T01:00:39;102591.94;;;9.71;61.91
33404;BME280;19751;40.274;18.268;2023-02-13T01:03:05;102593.78;;;9.70;62.03
33404;BME280;19751;40.274;18.268;2023-02-13T01:05:30;102593.91;;;9.69;61.96
33404;BME280;19751;40.274;18.268;2023-02-13T01:07:56;102601.97;;;9.69;62.19
33404;BME280;19751;40.274;18.268;2023-02-13T01:10:23;102599.56;;;9.66;62.62
33404;BME280;19751;40.274;18.268;2023-02-13T01:12:49;102598.84;;;9.64;63.00
33404;BME280;19751;40.274;18.268;2023-02-13T01:15:14;102605.25;;;9.63;63.14
33404;BME280;19751;40.274;18.268;2023-02-13T01:17:40;102602.81;;;9.60;63.90
33404;BME280;19751;40.274;18.268;2023-02-13T01:20:07;102605.66;;;9.58;64.02
33404;BME280;19751;40.274;18.268;2023-02-13T01:22:32;102600.53;;;9.55;64.88
33404;BME280;19751;40.274;18.268;2023-02-13T01:24:58;102604.22;;;9.54;64.96
33404;BME280;19751;40.274;18.268;2023-02-13T01:27:24;102604.34;;;9.53;65.68
33404;BME280;19751;40.274;18.268;2023-02-13T01:29:49;102597.97;;;9.54;66.10
33404;BME280;19751;40.274;18.268;2023-02-13T01:32:18;102591.16;;;9.50;67.14
33404;BME280;19751;40.274;18.268;2023-02-13T01:34:43;102590.31;;;9.49;67.65
33404;BME280;19751;40.274;18.268;2023-02-13T01:37:08;102590.47;;;9.48;68.24
33404;BME280;19751;40.274;18.268;2023-02-13T01:39:34;102593.31;;;9.46;68.35
33404;BME280;19751;40.274;18.268;2023-02-13T01:41:59;102597.94;;;9.44;68.85
33404;BME280;19751;40.274;18.268;2023-02-13T01:47:11;102604.19;;;9.44;70.47
33404;BME280;19751;40.274;18.268;2023-02-13T01:49:39;102602.22;;;9.46;70.97
33404;BME280;19751;40.274;18.268;2023-02-13T01:52:06;102610.28;;;9.46;72.37
33404;BME280;19751;40.274;18.268;2023-02-13T01:54:35;102612.69;;;9.50;72.80
33404;BME280;19751;40.274;18.268;2023-02-13T01:57:07;102615.38;;;9.50;73.76
33404;BME280;19751;40.274;18.268;2023-02-13T01:59:39;102617.94;;;9.51;74.61
33404;BME280;19751;40.274;18.268;2023-02-13T02:02:06;102610.88;;;9.50;75.03
33404;BME280;19751;40.274;18.268;2023-02-13T02:04:33;102609.03;;;9.51;75.83
33404;BME280;19751;40.274;18.268;2023-02-13T02:07:06;102614.09;;;9.54;76.49
33404;BME280;19751;40.274;18.268;2023-02-13T02:09:35;102620.91;;;9.58;77.45
33404;BME280;19751;40.274;18.268;2023-02-13T02:12:33;102627.59;;;9.63;77.69
33404;BME280;19751;40.274;18.268;2023-02-13T02:15:03;102624.50;;;9.68;77.83
33404;BME280;19751;40.274;18.268;2023-02-13T02:17:30;102630.31;;;9.73;78.08
33404;BME280;19751;40.274;18.268;2023-02-13T02:20:05;102633.44;;;9.78;78.11
33404;BME280;19751;40.274;18.268;2023-02-13T02:31:17;102654.69;;;9.81;81.38
33404;BME280;19751;40.274;18.268;2023-02-13T02:34:02;102658.50;;;9.69;82.98
33404;BME280;19751;40.274;18.268;2023-02-13T02:42:02;102661.91;;;9.40;90.77
33404;BME280;19751;40.274;18.268;2023-02-13T02:50:43;102672.41;;;9.43;96.35
33404;BME280;19751;40.274;18.268;2023-02-13T02:56:12;102668.50;;;9.57;95.58
33404;BME280;19751;40.274;18.268;2023-02-13T02:58:46;102674.47;;;9.61;95.64
33404;BME280;19751;40.274;18.268;2023-02-13T03:01:33;102677.16;;;9.61;95.98
33404;BME280;19751;40.274;18.268;2023-02-13T03:04:26;102688.91;;;9.60;95.20
33404;BME280;19751;40.274;18.268;2023-02-13T03:07:13;102693.00;;;9.54;93.74
33404;BME280;19751;40.274;18.268;2023-02-13T03:09:56;102687.47;;;9.56;94.74
33404;BME280;19751;40.274;18.268;2023-02-13T03:12:46;102688.06;;;9.59;94.56
33404;BME280;19751;40.274;18.268;2023-02-13T03:15:35;102688.75;;;9.61;93.78
33404;BME280;19751;40.274;18.268;2023-02-13T03:18:20;102694.81;;;9.54;93.47
33404;BME280;19751;40.274;18.268;2023-02-13T03:21:16;102696.06;;;9.50;94.08
33404;BME280;19751;40.274;18.268;2023-02-13T03:24:09;102702.59;;;9.47;93.82
33404;BME280;19751;40.274;18.268;2023-02-13T03:27:24;102705.88;;;9.51;94.12
33404;BME280;19751;40.274;18.268;2023-02-13T03:35:34;102712.88;;;9.63;95.32
33404;BME280;19751;40.274;18.268;2023-02-13T03:38:28;102722.63;;;9.64;95.27
33404;BME280;19751;40.274;18.268;2023-02-13T03:41:03;102723.63;;;9.63;95.59
33404;BME280;19751;40.274;18.268;2023-02-13T03:46:38;102732.41;;;9.65;95.44
33404;BME280;19751;40.274;18.268;2023-02-13T03:49:09;102734.97;;;9.66;95.26
33404;BME280;19751;40.274;18.268;2023-02-13T03:52:01;102734.69;;;9.69;95.34
33404;BME280;19751;40.274;18.268;2023-02-13T03:54:41;102739.09;;;9.70;94.72
33404;BME280;19751;40.274;18.268;2023-02-13T03:57:27;102731.59;;;9.74;94.72
33404;BME280;19751;40.274;18.268;2023-02-13T04:00:15;102741.09;;;9.78;94.52
33404;BME280;19751;40.274;18.268;2023-02-13T04:02:50;102741.09;;;9.78;94.71
33404;BME280;19751;40.274;18.268;2023-02-13T04:05:22;102741.22;;;9.77;94.84
33404;BME280;19751;40.274;18.268;2023-02-13T04:07:49;102737.97;;;9.73;94.92
33404;BME280;19751;40.274;18.268;2023-02-13T04:10:16;102745.34;;;9.71;94.94
33404;BME280;19751;40.274;18.268;2023-02-13T04:15:55;102759.50;;;9.73;95.44
33404;BME280;19751;40.274;18.268;2023-02-13T04:18:22;102762.06;;;9.75;96.12
33404;BME280;19751;40.274;18.268;2023-02-13T04:20:52;102761.19;;;9.74;96.65
33404;BME280;19751;40.274;18.268;2023-02-13T04:23:18;102756.53;;;9.76;96.88
33404;BME280;19751;40.274;18.268;2023-02-13T04:25:50;102768.88;;;9.79;97.29
33404;BME280;19751;40.274;18.268;2023-02-13T04:28:17;102767.88;;;9.80;97.77
33404;BME280;19751;40.274;18.268;2023-02-13T04:30:42;102770.44;;;9.81;97.74
33404;BME280;19751;40.274;18.268;2023-02-13T04:33:08;102770.44;;;9.81;98.45
33404;BME280;19751;40.274;18.268;2023-02-13T04:35:33;102783.63;;;9.84;99.04
33404;BME280;19751;40.274;18.268;2023-02-13T04:38:00;102780.19;;;9.82;99.61
33404;BME280;19751;40.274;18.268;2023-02-13T04:40:25;102783.88;;;9.81;100.00
33404;BME280;19751;40.274;18.268;2023-02-13T04:42:51;102788.56;;;9.79;100.00
33404;BME280;19751;40.274;18.268;2023-02-13T04:45:16;102793.81;;;9.81;100.00
33404;BME280;19751;40.274;18.268;2023-02-13T04:47:42;102790.25;;;9.80;100.00
33404;BME280;19751;40.274;18.268;2023-02-13T04:50:13;102792.97;;;9.80;100.00
33404;BME280;19751;40.274;18.268;2023-02-13T04:52:39;102797.50;;;9.80;100.00
33404;BME280;19751;40.274;18.268;2023-02-13T04:55:04;102803.88;;;9.79;100.00
33404;BME280;19751;40.274;18.268;2023-02-13T04:57:30;102807.53;;;9.78;100.00
33404;BME280;19751;40.274;18.268;2023-02-13T04:59:55;102801.19;;;9.79;100.00
33404;BME280;19751;40.274;18.268;2023-02-13T05:02:21;102802.13;;;9.78;100.00
33404;BME280;19751;40.274;18.268;2023-02-13T05:04:46;102802.13;;;9.78;100.00
33404;BME280;19751;40.274;18.268;2023-02-13T05:07:12;102802.28;;;9.76;100.00
33404;BME280;19751;40.274;18.268;2023-02-13T05:09:37;102809.50;;;9.76;100.00
33404;BME280;19751;40.274;18.268;2023-02-13T05:12:03;102816.75;;;9.75;100.00
33404;BME280;19751;40.274;18.268;2023-02-13T05:14:28;102817.69;;;9.74;100.00
33404;BME280;19751;40.274;18.268;2023-02-13T05:16:54;102812.19;;;9.76;100.00
33404;BME280;19751;40.274;18.268;2023-02-13T05:19:19;102821.13;;;9.76;100.00
33404;BME280;19751;40.274;18.268;2023-02-13T05:21:45;102826.66;;;9.75;100.00
33404;BME280;19751;40.274;18.268;2023-02-13T05:24:29;102829.34;;;9.75;100.00
33404;BME280;19751;40.274;18.268;2023-02-13T05:26:54;102825.66;;;9.76;100.00
33404;BME280;19751;40.274;18.268;2023-02-13T05:29:20;102825.50;;;9.77;100.00
33404;BME280;19751;40.274;18.268;2023-02-13T05:31:52;102829.19;;;9.76;100.00
33404;BME280;19751;40.274;18.268;2023-02-13T05:34:22;102830.19;;;9.75;100.00
33404;BME280;19751;40.274;18.268;2023-02-13T05:36:48;102831.75;;;9.78;100.00
33404;BME280;19751;40.274;18.268;2023-02-13T05:39:14;102835.28;;;9.78;100.00
33404;BME280;19751;40.274;18.268;2023-02-13T05:41:41;102835.28;;;9.78;100.00
33404;BME280;19751;40.274;18.268;2023-02-13T05:44:07;102839.72;;;9.79;100.00
33404;BME280;19751;40.274;18.268;2023-02-13T05:46:32;102839.72;;;9.79;100.00
33404;BME280;19751;40.274;18.268;2023-02-13T05:48:58;102846.06;;;9.78;100.00
33404;BME280;19751;40.274;18.268;2023-02-13T05:51:24;102847.03;;;9.77;100.00
33404;BME280;19751;40.274;18.268;2023-02-13T05:53:50;102847.03;;;9.77;100.00
33404;BME280;19751;40.274;18.268;2023-02-13T05:56:15;102847.03;;;9.77;100.00
33404;BME280;19751;40.274;18.268;2023-02-13T05:58:41;102849.63;;;9.79;100.00
33404;BME280;19751;40.274;18.268;2023-02-13T06:01:06;102858.53;;;9.79;100.00
33404;BME280;19751;40.274;18.268;2023-02-13T06:03:32;102854.88;;;9.80;100.00
33404;BME280;19751;40.274;18.268;2023-02-13T06:05:58;102857.56;;;9.80;100.00
33404;BME280;19751;40.274;18.268;2023-02-13T06:08:24;102866.63;;;9.79;100.00
33404;BME280;19751;40.274;18.268;2023-02-13T06:10:50;102871.84;;;9.81;100.00
33404;BME280;19751;40.274;18.268;2023-02-13T06:13:17;102871.72;;;9.82;100.00
33404;BME280;19751;40.274;18.268;2023-02-13T06:15:42;102875.16;;;9.84;100.00
33404;BME280;19751;40.274;18.268;2023-02-13T06:18:09;102876.84;;;9.85;100.00
33404;BME280;19751;40.274;18.268;2023-02-13T06:20:34;102879.28;;;9.88;100.00
33404;BME280;19751;40.274;18.268;2023-02-13T06:23:00;102873.63;;;9.91;100.00
33404;BME280;19751;40.274;18.268;2023-02-13T06:25:26;102883.16;;;9.95;100.00
33404;BME280;19751;40.274;18.268;2023-02-13T06:27:52;102888.84;;;10.02;100.00
33404;BME280;19751;40.274;18.268;2023-02-13T06:30:18;102886.72;;;10.06;100.00
33404;BME280;19751;40.274;18.268;2023-02-13T06:32:45;102892.84;;;10.08;100.00
33404;BME280;19751;40.274;18.268;2023-02-13T06:35:11;102896.25;;;10.10;100.00
33404;BME280;19751;40.274;18.268;2023-02-13T06:37:37;102896.25;;;10.10;100.00
33404;BME280;19751;40.274;18.268;2023-02-13T06:40:05;102897.53;;;10.15;100.00
33404;BME280;19751;40.274;18.268;2023-02-13T06:42:31;102897.88;;;10.22;100.00
33404;BME280;19751;40.274;18.268;2023-02-13T06:44:57;102910.72;;;10.30;100.00
33404;BME280;19751;40.274;18.268;2023-02-13T06:47:23;102901.22;;;10.35;100.00
33404;BME280;19751;40.274;18.268;2023-02-13T06:49:48;102912.59;;;10.39;100.00
33404;BME280;19751;40.274;18.268;2023-02-13T06:52:13;102909.47;;;10.43;100.00
33404;BME280;19751;40.274;18.268;2023-02-13T06:54:39;102915.47;;;10.47;100.00
33404;BME280;19751;40.274;18.268;2023-02-13T06:57:04;102910.66;;;10.51;100.00
33404;BME280;19751;40.274;18.268;2023-02-13T06:59:30;102910.38;;;10.54;100.00
33404;BME280;19751;40.274;18.268;2023-02-13T07:01:55;102909.97;;;10.58;100.00
33404;BME280;19751;40.274;18.268;2023-02-13T07:04:21;102915.22;;;10.60;100.00
33404;BME280;19751;40.274;18.268;2023-02-13T07:06:46;102912.38;;;10.61;100.00
33404;BME280;19751;40.274;18.268;2023-02-13T07:09:12;102914.09;;;10.62;100.00
33404;BME280;19751;40.274;18.268;2023-02-13T07:11:38;102925.72;;;10.63;100.00
33404;BME280;19751;40.274;18.268;2023-02-13T07:14:06;102923.03;;;10.63;100.00
33404;BME280;19751;40.274;18.268;2023-02-13T07:16:32;102926.59;;;10.63;99.15
33404;BME280;19751;40.274;18.268;2023-02-13T07:18:57;102922.03;;;10.64;98.84
33404;BME280;19751;40.274;18.268;2023-02-13T07:21:23;102920.94;;;10.66;98.45
33404;BME280;19751;40.274;18.268;2023-02-13T07:23:48;102932.56;;;10.67;98.44
33404;BME280;19751;40.274;18.268;2023-02-13T07:26:14;102928.72;;;10.69;98.59
33404;BME280;19751;40.274;18.268;2023-02-13T07:28:40;102932.72;;;10.75;99.05
33404;BME280;19751;40.274;18.268;2023-02-13T07:31:06;102936.84;;;10.79;99.15
33404;BME280;19751;40.274;18.268;2023-02-13T07:33:33;102937.44;;;10.83;99.09
33404;BME280;19751;40.274;18.268;2023-02-13T07:35:58;102931.63;;;10.87;99.16
33404;BME280;19751;40.274;18.268;2023-02-13T07:38:26;102930.34;;;10.91;99.03
33404;BME280;19751;40.274;18.268;2023-02-13T07:40:52;102931.50;;;10.99;98.68
33404;BME280;19751;40.274;18.268;2023-02-13T07:43:17;102932.81;;;11.04;98.50
33404;BME280;19751;40.274;18.268;2023-02-13T07:45:43;102937.78;;;11.09;97.59
33404;BME280;19751;40.274;18.268;2023-02-13T07:48:08;102935.22;;;11.17;96.96
33404;BME280;19751;40.274;18.268;2023-02-13T07:50:35;102934.53;;;11.25;95.49
33404;BME280;19751;40.274;18.268;2023-02-13T07:53:01;102944.63;;;11.32;93.64
33404;BME280;19751;40.274;18.268;2023-02-13T07:55:28;102946.75;;;11.38;91.65
33404;BME280;19751;40.274;18.268;2023-02-13T07:57:54;102936.09;;;11.47;89.97
33404;BME280;19751;40.274;18.268;2023-02-13T08:00:20;102941.34;;;11.48;85.22
33404;BME280;19751;40.274;18.268;2023-02-13T08:02:46;102949.75;;;11.55;83.39
33404;BME280;19751;40.274;18.268;2023-02-13T08:05:12;102948.72;;;11.56;83.24
33404;BME280;19751;40.274;18.268;2023-02-13T08:07:37;102950.59;;;11.55;81.58
33404;BME280;19751;40.274;18.268;2023-02-13T08:10:06;102955.13;;;11.55;80.20
33404;BME280;19751;40.274;18.268;2023-02-13T08:12:51;102953.44;;;11.54;78.94
33404;BME280;19751;40.274;18.268;2023-02-13T08:15:17;102950.59;;;11.55;78.44
33404;BME280;19751;40.274;18.268;2023-02-13T08:17:42;102944.19;;;11.56;78.38
33404;BME280;19751;40.274;18.268;2023-02-13T08:20:08;102954.00;;;11.57;78.03
33404;BME280;19751;40.274;18.268;2023-02-13T08:22:35;102951.31;;;11.57;78.53
33404;BME280;19751;40.274;18.268;2023-02-13T08:25:02;102960.25;;;11.58;78.30
33404;BME280;19751;40.274;18.268;2023-02-13T08:27:27;102955.56;;;11.60;77.72
33404;BME280;19751;40.274;18.268;2023-02-13T08:29:55;102967.19;;;11.60;77.76
33404;BME280;19751;40.274;18.268;2023-02-13T08:32:21;102956.41;;;11.60;77.25
33404;BME280;19751;40.274;18.268;2023-02-13T08:34:47;102949.31;;;11.59;76.67
33404;BME280;19751;40.274;18.268;2023-02-13T08:37:13;102952.16;;;11.58;75.38
33404;BME280;19751;40.274;18.268;2023-02-13T08:39:38;102964.38;;;11.62;75.17
33404;BME280;19751;40.274;18.268;2023-02-13T08:42:04;102960.25;;;11.67;74.60
33404;BME280;19751;40.274;18.268;2023-02-13T08:44:29;102963.38;;;11.73;74.24
33404;BME280;19751;40.274;18.268;2023-02-13T08:46:55;102959.53;;;11.75;73.56
33404;BME280;19751;40.274;18.268;2023-02-13T08:49:21;102963.94;;;11.76;73.79
33404;BME280;19751;40.274;18.268;2023-02-13T08:51:48;102964.50;;;11.80;73.35
33404;BME280;19751;40.274;18.268;2023-02-13T08:54:14;102963.38;;;11.82;73.44
33404;BME280;19751;40.274;18.268;2023-02-13T08:56:40;102971.19;;;11.85;73.15
33404;BME280;19751;40.274;18.268;2023-02-13T08:59:06;102967.53;;;11.86;73.88
33404;BME280;19751;40.274;18.268;2023-02-13T09:01:31;102970.22;;;11.86;74.65
33404;BME280;19751;40.274;18.268;2023-02-13T09:03:57;102971.94;;;11.87;74.80
33404;BME280;19751;40.274;18.268;2023-02-13T09:06:22;102974.34;;;11.90;74.93
33404;BME280;19751;40.274;18.268;2023-02-13T09:08:50;102978.75;;;11.91;75.65
33404;BME280;19751;40.274;18.268;2023-02-13T09:11:16;102980.00;;;11.97;75.96
33404;BME280;19751;40.274;18.268;2023-02-13T09:13:41;102970.50;;;12.03;76.52
33404;BME280;19751;40.274;18.268;2023-02-13T09:16:07;102967.63;;;12.04;72.53
33404;BME280;19751;40.274;18.268;2023-02-13T09:18:33;102976.44;;;12.06;71.28
33404;BME280;19751;40.274;18.268;2023-02-13T09:21:01;102974.63;;;12.07;70.87
33404;BME280;19751;40.274;18.268;2023-02-13T09:23:33;102977.31;;;12.07;71.15
33404;BME280;19751;40.274;18.268;2023-02-13T09:26:03;102976.44;;;12.06;70.77
33404;BME280;19751;40.274;18.268;2023-02-13T09:28:29;102974.47;;;12.08;71.02
33404;BME280;19751;40.274;18.268;2023-02-13T09:30:56;102975.03;;;12.12;70.72
33404;BME280;19751;40.274;18.268;2023-02-13T09:33:21;102970.03;;;12.17;70.85
33404;BME280;19751;40.274;18.268;2023-02-13T09:35:47;102979.53;;;12.21;70.79
33404;BME280;19751;40.274;18.268;2023-02-13T09:38:12;102980.97;;;12.25;71.25
33404;BME280;19751;40.274;18.268;2023-02-13T09:43:15;102966.28;;;12.37;70.88
33404;BME280;19751;40.274;18.268;2023-02-13T09:45:43;102970.56;;;12.40;69.01
33404;BME280;19751;40.274;18.268;2023-02-13T09:48:18;102965.00;;;12.41;68.72
33404;BME280;19751;40.274;18.268;2023-02-13T09:50:49;102965.84;;;12.42;65.95
33404;BME280;19751;40.274;18.268;2023-02-13T09:53:21;102967.69;;;12.41;65.56
33404;BME280;19751;40.274;18.268;2023-02-13T09:56:09;102979.19;;;12.43;65.73
33404;BME280;19751;40.274;18.268;2023-02-13T09:58:43;102971.41;;;12.40;64.07
33404;BME280;19751;40.274;18.268;2023-02-13T10:01:22;102969.81;;;12.38;63.95
33404;BME280;19751;40.274;18.268;2023-02-13T10:06:43;102969.38;;;12.42;65.25
33404;BME280;19751;40.274;18.268;2023-02-13T10:15:55;102964.13;;;12.41;67.61
33404;BME280;19751;40.274;18.268;2023-02-13T10:18:44;102968.69;;;12.40;67.47
33404;BME280;19751;40.274;18.268;2023-02-13T10:21:13;102959.59;;;12.41;67.53
33404;BME280;19751;40.274;18.268;2023-02-13T10:23:45;102956.03;;;12.41;67.22
33404;BME280;19751;40.274;18.268;2023-02-13T10:26:19;102955.63;;;12.36;66.50
33404;BME280;19751;40.274;18.268;2023-02-13T10:28:59;102958.75;;;12.31;66.62
33404;BME280;19751;40.274;18.268;2023-02-13T10:31:47;102953.66;;;12.28;66.57
33404;BME280;19751;40.274;18.268;2023-02-13T10:34:16;102953.09;;;12.25;66.51
33404;BME280;19751;40.274;18.268;2023-02-13T10:36:45;102952.25;;;12.24;66.74
33404;BME280;19751;40.274;18.268;2023-02-13T10:41:53;102944.53;;;12.29;66.67
33404;BME280;19751;40.274;18.268;2023-02-13T10:55:30;102951.31;;;12.43;64.33
33404;BME280;19751;40.274;18.268;2023-02-13T10:58:07;102948.59;;;12.43;64.09
33404;BME280;19751;40.274;18.268;2023-02-13T11:00:37;102945.06;;;12.42;63.53
33404;BME280;19751;40.274;18.268;2023-02-13T11:03:21;102936.94;;;12.42;63.26
33404;BME280;19751;40.274;18.268;2023-02-13T11:05:48;102937.66;;;12.44;63.36
33404;BME280;19751;40.274;18.268;2023-02-13T11:08:31;102940.91;;;12.48;63.05
33404;BME280;19751;40.274;18.268;2023-02-13T11:10:57;102940.47;;;12.53;63.33
33404;BME280;19751;40.274;18.268;2023-02-13T11:13:26;102931.38;;;12.54;62.85
33404;BME280;19751;40.274;18.268;2023-02-13T11:18:22;102933.78;;;12.57;62.02
33404;BME280;19751;40.274;18.268;2023-02-13T11:20:58;102936.16;;;12.60;63.30
33404;BME280;19751;40.274;18.268;2023-02-13T11:28:30;102937.22;;;12.49;64.28
33404;BME280;19751;40.274;18.268;2023-02-13T11:31:20;102929.41;;;12.46;64.02
33404;BME280;19751;40.274;18.268;2023-02-13T11:33:46;102925.69;;;12.47;64.49
33404;BME280;19751;40.274;18.268;2023-02-13T11:36:34;102932.09;;;12.46;63.32
33404;BME280;19751;40.274;18.268;2023-02-13T11:39:05;102930.09;;;12.48;63.52
33404;BME280;19751;40.274;18.268;2023-02-13T11:41:38;102941.06;;;12.47;63.28
33404;BME280;19751;40.274;18.268;2023-02-13T11:44:14;102925.00;;;12.45;62.75
33404;BME280;19751;40.274;18.268;2023-02-13T11:46:46;102929.25;;;12.48;63.17
33404;BME280;19751;40.274;18.268;2023-02-13T11:49:32;102932.66;;;12.50;62.66
33404;BME280;19751;40.274;18.268;2023-02-13T11:52:02;102934.53;;;12.49;62.24
33404;BME280;19751;40.274;18.268;2023-02-13T11:54:35;102931.25;;;12.46;60.68
33404;BME280;19751;40.274;18.268;2023-02-13T11:57:21;102937.78;;;12.43;60.01
33404;BME280;19751;40.274;18.268;2023-02-13T11:59:50;102931.72;;;12.41;59.79
33404;BME280;19751;40.274;18.268;2023-02-13T12:02:22;102923.44;;;12.42;60.10
33404;BME280;19751;40.274;18.268;2023-02-13T12:04:50;102920.72;;;12.42;60.20
33404;BME280;19751;40.274;18.268;2023-02-13T12:07:36;102920.56;;;12.44;60.28
33404;BME280;19751;40.274;18.268;2023-02-13T12:13:15;102928.25;;;12.49;59.26
33404;BME280;19751;40.274;18.268;2023-02-13T12:15:46;102916.28;;;12.51;58.60
33404;BME280;19751;40.274;18.268;2023-02-13T12:18:27;102910.88;;;12.51;58.24
33404;BME280;19751;40.274;18.268;2023-02-13T12:23:45;102904.88;;;12.57;57.67
33404;BME280;19751;40.274;18.268;2023-02-13T12:29:11;102906.31;;;12.52;57.03
33404;BME280;19751;40.274;18.268;2023-02-13T12:54:54;102889.88;;;12.45;56.78
33404;BME280;19751;40.274;18.268;2023-02-13T13:00:39;102887.28;;;12.43;56.32
33404;BME280;19751;40.274;18.268;2023-02-13T13:11:00;102883.19;;;12.39;57.05
33404;BME280;19751;40.274;18.268;2023-02-13T13:19:07;102878.38;;;12.33;56.58
33404;BME280;19751;40.274;18.268;2023-02-13T13:21:50;102870.28;;;12.33;56.02
33404;BME280;19751;40.274;18.268;2023-02-13T13:26:55;102868.31;;;12.26;56.46
33404;BME280;19751;40.274;18.268;2023-02-13T13:29:26;102872.88;;;12.25;56.43
33404;BME280;19751;40.274;18.268;2023-02-13T13:31:57;102871.75;;;12.28;56.39
33404;BME280;19751;40.274;18.268;2023-02-13T13:34:29;102879.97;;;12.26;55.19
33404;BME280;19751;40.274;18.268;2023-02-13T13:42:40;102886.38;;;12.25;55.17
33404;BME280;19751;40.274;18.268;2023-02-13T13:45:27;102890.34;;;12.31;55.30
33404;BME280;19751;40.274;18.268;2023-02-13T13:50:52;102884.75;;;12.42;55.47
33404;BME280;19751;40.274;18.268;2023-02-13T13:53:20;102876.03;;;12.48;55.46
33404;BME280;19751;40.274;18.268;2023-02-13T14:01:24;102894.31;;;12.64;53.75
33404;BME280;19751;40.274;18.268;2023-02-13T14:03:52;102888.31;;;12.70;53.55
33404;BME280;19751;40.274;18.268;2023-02-13T14:06:22;102881.59;;;12.74;53.02
33404;BME280;19751;40.274;18.268;2023-02-13T14:11:39;102888.16;;;12.89;52.42
33404;BME280;19751;40.274;18.268;2023-02-13T14:16:53;102891.50;;;13.01;51.85
33404;BME280;19751;40.274;18.268;2023-02-13T14:19:37;102893.06;;;13.04;51.21
33404;BME280;19751;40.274;18.268;2023-02-13T14:24:56;102890.53;;;13.02;50.72
33404;BME280;19751;40.274;18.268;2023-02-13T14:27:40;102890.53;;;13.02;50.48
33404;BME280;19751;40.274;18.268;2023-02-13T14:30:25;102893.84;;;12.96;50.81
33404;BME280;19751;40.274;18.268;2023-02-13T14:32:52;102893.28;;;12.92;51.23
33404;BME280;19751;40.274;18.268;2023-02-13T14:35:28;102902.41;;;12.91;51.83
33404;BME280;19751;40.274;18.268;2023-02-13T14:38:00;102902.03;;;12.86;52.47
33404;BME280;19751;40.274;18.268;2023-02-13T14:40:47;102894.75;;;12.87;53.00
33404;BME280;19751;40.274;18.268;2023-02-13T14:43:46;102892.59;;;12.90;53.33
33404;BME280;19751;40.274;18.268;2023-02-13T14:46:36;102894.03;;;12.85;53.29
33404;BME280;19751;40.274;18.268;2023-02-13T14:49:16;102900.97;;;12.69;53.19
33404;BME280;19751;40.274;18.268;2023-02-13T14:51:53;102888.13;;;12.54;53.12
33404;BME280;19751;40.274;18.268;2023-02-13T14:56:49;102897.16;;;12.35;52.94
33404;BME280;19751;40.274;18.268;2023-02-13T14:59:25;102896.47;;;12.23;52.53
33404;BME280;19751;40.274;18.268;2023-02-13T15:02:08;102891.97;;;12.14;52.13
33404;BME280;19751;40.274;18.268;2023-02-13T15:04:44;102892.56;;;12.08;52.34
33404;BME280;19751;40.274;18.268;2023-02-13T15:07:17;102897.25;;;12.06;52.54
33404;BME280;19751;40.274;18.268;2023-02-13T15:09:51;102885.75;;;12.04;53.07
33404;BME280;19751;40.274;18.268;2023-02-13T15:12:28;102886.59;;;12.04;52.94
33404;BME280;19751;40.274;18.268;2023-02-13T15:14:55;102884.06;;;12.03;53.32
33404;BME280;19751;40.274;18.268;2023-02-13T15:17:23;102889.88;;;11.98;53.46
33404;BME280;19751;40.274;18.268;2023-02-13T15:19:52;102895.88;;;11.92;53.42
33404;BME280;19751;40.274;18.268;2023-02-13T15:22:38;102885.50;;;11.87;53.36
33404;BME280;19751;40.274;18.268;2023-02-13T15:25:21;102893.63;;;11.87;53.22
33404;BME280;19751;40.274;18.268;2023-02-13T15:27:51;102884.34;;;11.80;53.23